Time;durP1;ratioP1;P1;durP2;ratioP2;P2;SDS_P1;SDS_P2;PMS_P1;PMS_P2;Temp;Humidity;BMP_temperature;BMP_pressure;BME280_temperature;BME280_humidity;BME280_pressure;Samples;Min_cycle;Max_cycle;Signal;HPM_P1;HPM_P2
2021/07/29 00:01:16;;;;;;;11.50;7.03;;;;;;;20.44;80.12;96373.88;127639;1093;22848;-92
2021/07/29 00:03:47;;;;;;;9.40;6.53;;;;;;;20.41;80.15;96366.47;127636;1093;24681;-96
2021/07/29 00:06:19;;;;;;;9.48;6.43;;;;;;;20.36;80.28;96362.10;127830;1093;27281;-93
2021/07/29 00:08:52;;;;;;;8.63;6.35;;;;;;;20.35;80.50;96357.85;127759;1093;24674;-96
2021/07/29 00:11:23;;;;;;;11.10;7.58;;;;;;;20.39;80.01;96363.31;127792;1093;25315;-96
2021/07/29 00:13:57;;;;;;;11.13;6.83;;;;;;;20.44;80.19;96358.50;127791;1093;22795;-92
2021/07/29 00:16:31;;;;;;;8.88;6.25;;;;;;;20.49;79.91;96362.05;127815;1093;25480;-96
2021/07/29 00:19:05;;;;;;;9.13;6.33;;;;;;;20.48;80.06;96353.19;127448;1093;22944;-92
2021/07/29 00:21:38;;;;;;;10.73;6.83;;;;;;;20.45;80.07;96356.59;127795;1093;22817;-95
2021/07/29 00:24:10;;;;;;;9.78;7.23;;;;;;;20.43;79.95;96356.94;127580;1093;24974;-89
2021/07/29 00:26:41;;;;;;;9.28;6.73;;;;;;;20.49;80.10;96359.36;127658;1093;27967;-91
2021/07/29 00:29:12;;;;;;;11.65;6.73;;;;;;;20.53;80.10;96352.14;127825;1093;26951;-91
2021/07/29 00:31:43;;;;;;;7.68;6.43;;;;;;;20.56;79.80;96359.55;127752;1093;25986;-92
2021/07/29 00:34:15;;;;;;;8.35;6.40;;;;;;;20.62;79.52;96369.70;127735;1093;23675;-95
2021/07/29 00:36:46;;;;;;;10.40;6.60;;;;;;;20.73;79.90;96370.73;127749;1093;22819;-92
2021/07/29 00:39:17;;;;;;;8.43;6.73;;;;;;;20.78;79.71;96369.68;127751;1093;23593;-92
2021/07/29 00:41:50;;;;;;;9.95;7.05;;;;;;;20.66;79.39;96367.86;127756;1093;22816;-95
2021/07/29 00:44:21;;;;;;;8.85;6.80;;;;;;;20.50;79.30;96367.09;127578;1093;22795;-93
2021/07/29 00:46:52;;;;;;;11.10;7.10;;;;;;;20.32;79.70;96365.84;127748;1093;22800;-95
2021/07/29 00:49:24;;;;;;;10.33;8.00;;;;;;;20.21;80.35;96372.86;127836;1092;24049;-93
2021/07/29 00:51:55;;;;;;;10.83;7.33;;;;;;;20.26;80.92;96372.59;127825;1093;30567;-91
2021/07/29 00:54:28;;;;;;;9.45;7.20;;;;;;;20.35;80.98;96387.47;127854;1092;22813;-95
2021/07/29 00:57:01;;;;;;;9.83;7.73;;;;;;;20.34;81.41;96379.73;127854;1092;26870;-92
2021/07/29 00:59:32;;;;;;;9.88;7.60;;;;;;;20.37;81.04;96389.81;127840;1093;24579;-93
2021/07/29 01:02:04;;;;;;;12.90;8.40;;;;;;;20.38;80.97;96385.98;127851;1093;24519;-92
2021/07/29 01:04:36;;;;;;;11.18;7.73;;;;;;;20.47;80.75;96377.78;127903;1094;22788;-92
2021/07/29 01:07:07;;;;;;;11.15;7.25;;;;;;;20.54;80.62;96384.11;127907;1093;27140;-93
2021/07/29 01:09:39;;;;;;;10.43;6.93;;;;;;;20.58;80.25;96387.69;127935;1093;22787;-95
2021/07/29 01:12:11;;;;;;;10.33;7.55;;;;;;;20.57;80.01;96388.82;127440;1093;23206;-91
2021/07/29 01:14:43;;;;;;;10.75;7.00;;;;;;;20.52;80.53;96383.67;127869;1093;22927;-91
2021/07/29 01:17:14;;;;;;;10.48;7.50;;;;;;;20.50;80.63;96377.86;127389;1093;22789;-92
2021/07/29 01:19:45;;;;;;;9.38;7.40;;;;;;;20.45;80.70;96376.22;127829;1093;25372;-93
2021/07/29 01:22:16;;;;;;;9.95;7.38;;;;;;;20.48;80.70;96368.57;127850;1093;26385;-91
2021/07/29 01:24:47;;;;;;;10.68;7.98;;;;;;;20.47;80.85;96378.56;127814;1093;35806;-94
2021/07/29 01:27:21;;;;;;;8.87;7.30;;;;;;;20.53;81.01;96370.99;127855;1093;22786;-92
2021/07/29 01:29:52;;;;;;;10.98;7.78;;;;;;;20.52;80.90;96370.21;127858;1093;24017;-91
2021/07/29 01:32:23;;;;;;;11.08;7.60;;;;;;;20.53;81.25;96371.77;127822;1093;24707;-96
2021/07/29 01:34:56;;;;;;;10.20;8.18;;;;;;;20.56;80.73;96368.41;127838;1093;24346;-92
2021/07/29 01:37:27;;;;;;;11.37;8.17;;;;;;;20.53;80.64;96373.69;127405;1093;25833;-96
2021/07/29 01:39:59;;;;;;;11.63;8.73;;;;;;;20.55;80.67;96374.92;127844;1093;24438;-91
2021/07/29 01:42:30;;;;;;;10.60;8.93;;;;;;;20.53;80.60;96376.38;127845;1093;22798;-92
2021/07/29 01:45:01;;;;;;;12.50;8.45;;;;;;;20.56;80.50;96375.70;127862;1093;26700;-96
2021/07/29 01:47:32;;;;;;;12.83;9.08;;;;;;;20.54;80.65;96373.33;127607;1093;36296;-92
2021/07/29 01:50:03;;;;;;;11.55;8.50;;;;;;;20.55;80.76;96371.42;127835;1093;24275;-92
2021/07/29 01:52:37;;;;;;;13.98;9.75;;;;;;;20.55;80.75;96377.62;127852;1093;24965;-91
2021/07/29 01:55:10;;;;;;;12.73;9.50;;;;;;;20.53;80.51;96387.15;127897;1093;22970;-93
2021/07/29 01:57:41;;;;;;;13.30;8.87;;;;;;;20.40;80.54;96381.81;127856;1093;26666;-91
2021/07/29 02:00:14;;;;;;;12.30;8.73;;;;;;;20.33;80.48;96387.03;127866;1093;23948;-89
2021/07/29 02:02:46;;;;;;;12.18;8.75;;;;;;;20.27;81.18;96390.31;127434;1093;22786;-92
2021/07/29 02:05:17;;;;;;;15.30;9.85;;;;;;;20.32;81.54;96398.94;127824;1093;25198;-94
2021/07/29 02:07:48;;;;;;;13.48;10.85;;;;;;;20.34;81.61;96387.81;127871;1093;23220;-91
2021/07/29 02:10:19;;;;;;;13.68;11.00;;;;;;;20.36;81.57;96396.33;127870;1093;23013;-91
2021/07/29 02:12:51;;;;;;;16.13;11.88;;;;;;;20.40;81.75;96399.88;127849;1093;26288;-93
2021/07/29 02:15:23;;;;;;;15.05;11.20;;;;;;;20.42;82.04;96403.06;127851;1093;25304;-93
2021/07/29 02:17:57;;;;;;;15.18;12.38;;;;;;;20.37;82.02;96389.81;127854;1093;27112;-91
2021/07/29 02:20:29;;;;;;;14.73;11.15;;;;;;;20.23;82.25;96389.45;127823;1093;22813;-92
2021/07/29 02:23:00;;;;;;;12.53;10.43;;;;;;;20.17;82.52;96391.63;127851;1092;24267;-94
2021/07/29 02:25:31;;;;;;;16.40;12.80;;;;;;;20.16;82.46;96395.44;127847;1093;26048;-95
2021/07/29 02:28:02;;;;;;;14.58;11.78;;;;;;;20.21;82.62;96391.70;127866;1093;22834;-93
2021/07/29 02:30:33;;;;;;;13.63;10.88;;;;;;;20.24;82.29;96391.80;127853;1093;25408;-94
2021/07/29 02:33:05;;;;;;;13.65;10.55;;;;;;;20.20;82.62;96396.31;127907;1093;22935;-92
2021/07/29 02:35:36;;;;;;;13.83;11.30;;;;;;;20.15;82.61;96393.88;127923;1094;22991;-93
2021/07/29 02:38:07;;;;;;;15.13;12.53;;;;;;;20.12;82.99;96389.95;127924;1093;24627;-94
2021/07/29 02:40:38;;;;;;;14.93;11.48;;;;;;;20.06;83.34;96383.27;127671;1093;23903;-93
2021/07/29 02:43:09;;;;;;;11.28;9.65;;;;;;;20.00;83.46;96392.72;127907;1093;22816;-91
2021/07/29 02:45:40;;;;;;;13.18;10.08;;;;;;;19.99;83.71;96396.55;127864;1092;22788;-90
2021/07/29 02:48:11;;;;;;;13.00;9.93;;;;;;;19.95;84.53;96395.64;127714;1093;24855;-94
2021/07/29 02:50:43;;;;;;;12.63;9.70;;;;;;;19.92;84.20;96400.94;127639;1093;22787;-92
2021/07/29 02:53:14;;;;;;;12.73;10.50;;;;;;;19.92;84.34;96407.10;127646;1093;23722;-91
2021/07/29 02:55:45;;;;;;;12.03;10.03;;;;;;;20.02;84.43;96411.21;127588;1093;23543;-95
2021/07/29 02:58:16;;;;;;;12.53;10.20;;;;;;;20.00;85.05;96411.56;127805;1093;23180;-93
2021/07/29 03:00:47;;;;;;;13.55;10.95;;;;;;;19.95;84.53;96416.39;127521;1093;24370;-90
2021/07/29 03:03:18;;;;;;;11.83;10.10;;;;;;;19.96;84.29;96417.95;127823;1093;24360;-92
2021/07/29 03:05:50;;;;;;;16.10;12.00;;;;;;;20.01;84.33;96418.51;127552;1091;24377;-92
2021/07/29 03:08:21;;;;;;;12.20;10.40;;;;;;;20.08;84.32;96410.61;127686;1093;24433;-93
2021/07/29 03:10:52;;;;;;;13.23;11.40;;;;;;;20.06;84.40;96409.39;127784;1093;26818;-92
2021/07/29 03:13:23;;;;;;;11.38;10.05;;;;;;;19.99;84.19;96401.92;127802;1093;22785;-92
2021/07/29 03:15:55;;;;;;;12.38;10.93;;;;;;;19.97;84.45;96406.06;127770;1093;29452;-93
2021/07/29 03:18:26;;;;;;;13.83;11.83;;;;;;;19.96;84.26;96396.42;127801;1093;26426;-91
2021/07/29 03:20:57;;;;;;;13.93;11.60;;;;;;;19.96;84.43;96397.20;128232;1093;24271;-89
2021/07/29 03:23:28;;;;;;;14.03;9.53;;;;;;;19.95;83.68;96403.72;129785;1092;24769;-90
2021/07/29 03:25:59;;;;;;;11.85;8.85;;;;;;;19.98;83.33;96407.63;129816;1093;26729;-88
2021/07/29 03:28:31;;;;;;;11.35;8.13;;;;;;;19.99;82.63;96406.52;128301;1093;24796;-94
2021/07/29 03:31:02;;;;;;;11.75;8.28;;;;;;;19.96;82.38;96418.73;127803;1093;25986;-92
2021/07/29 03:33:33;;;;;;;10.60;8.10;;;;;;;19.98;82.15;96416.48;127733;1093;23224;-93
2021/07/29 03:36:05;;;;;;;12.98;9.58;;;;;;;19.89;82.12;96412.39;127593;1092;26220;-93
2021/07/29 03:38:37;;;;;;;12.83;8.58;;;;;;;19.84;81.78;96413.40;127660;1092;22789;-93
2021/07/29 03:41:12;;;;;;;12.08;9.18;;;;;;;19.70;81.95;96411.09;127672;1093;22920;-91
2021/07/29 03:43:43;;;;;;;12.50;9.48;;;;;;;19.65;81.52;96403.27;127415;1093;23655;-92
2021/07/29 03:46:14;;;;;;;13.80;10.40;;;;;;;19.65;82.28;96413.25;127473;1092;22920;-91
2021/07/29 03:48:45;;;;;;;12.98;9.98;;;;;;;19.61;82.62;96423.91;127516;1093;24117;-91
2021/07/29 03:51:16;;;;;;;12.95;10.13;;;;;;;19.61;82.46;96431.20;127712;1093;23802;-92
2021/07/29 03:53:47;;;;;;;13.83;11.20;;;;;;;19.61;82.17;96433.89;127726;1091;22799;-96
2021/07/29 03:56:19;;;;;;;14.68;11.58;;;;;;;19.66;82.35;96425.58;127796;1093;22810;-94
2021/07/29 03:58:50;;;;;;;14.60;11.85;;;;;;;19.71;82.45;96430.73;127797;1093;26248;-92
2021/07/29 04:01:21;;;;;;;11.45;10.05;;;;;;;19.63;81.51;96428.95;127822;1093;22796;-96
2021/07/29 04:03:52;;;;;;;13.55;10.20;;;;;;;19.49;81.52;96440.05;127686;1093;27013;-91
2021/07/29 04:06:23;;;;;;;14.68;11.95;;;;;;;19.42;81.87;96435.23;127789;1093;22867;-96
2021/07/29 04:08:54;;;;;;;13.25;11.35;;;;;;;19.46;82.34;96433.45;127785;1093;22796;-93
2021/07/29 04:11:25;;;;;;;16.60;12.53;;;;;;;19.53;82.64;96439.02;127767;1092;22826;-95
2021/07/29 04:13:57;;;;;;;14.78;12.33;;;;;;;19.62;82.52;96438.92;127799;1093;23033;-91
2021/07/29 04:16:28;;;;;;;17.83;13.75;;;;;;;19.55;82.04;96442.17;127624;1093;23729;-93
2021/07/29 04:19:00;;;;;;;16.15;13.45;;;;;;;19.55;82.54;96438.70;127619;1093;22891;-92
2021/07/29 04:21:31;;;;;;;14.50;12.85;;;;;;;19.62;82.64;96446.21;127698;1093;23278;-96
2021/07/29 04:24:02;;;;;;;17.05;13.63;;;;;;;19.68;82.65;96442.93;127485;1092;26373;-92
2021/07/29 04:26:33;;;;;;;18.15;15.15;;;;;;;19.71;82.93;96442.27;127845;1093;23512;-93
2021/07/29 04:29:04;;;;;;;17.75;14.45;;;;;;;19.71;82.65;96444.18;127591;1093;23002;-96
2021/07/29 04:31:36;;;;;;;18.90;14.95;;;;;;;19.75;82.56;96445.84;127903;1093;22834;-92
2021/07/29 04:34:07;;;;;;;17.73;15.50;;;;;;;19.75;82.28;96453.91;127879;1093;22829;-91
2021/07/29 04:36:43;;;;;;;17.53;15.23;;;;;;;19.75;82.10;96455.81;127799;1093;24602;-93
2021/07/29 04:39:14;;;;;;;19.07;14.97;;;;;;;19.70;81.37;96447.97;127773;1093;25635;-92
2021/07/29 04:41:46;;;;;;;20.95;17.25;;;;;;;19.65;82.22;96445.53;127768;1093;24561;-92
2021/07/29 04:44:18;;;;;;;18.05;15.28;;;;;;;19.60;82.11;96451.16;127725;1093;24008;-94
2021/07/29 04:46:49;;;;;;;18.60;15.25;;;;;;;19.59;82.33;96453.06;127789;1092;26132;-92
2021/07/29 04:49:22;;;;;;;19.53;15.40;;;;;;;19.56;82.38;96451.03;127799;1093;23250;-92
2021/07/29 04:51:53;;;;;;;17.35;14.68;;;;;;;19.56;82.11;96459.91;127813;1093;24746;-91
2021/07/29 04:54:25;;;;;;;18.25;15.58;;;;;;;19.52;82.29;96458.97;127591;1093;24427;-92
2021/07/29 04:56:56;;;;;;;17.20;13.08;;;;;;;19.50;82.55;96458.52;127806;1093;25723;-92
2021/07/29 04:59:27;;;;;;;15.25;13.48;;;;;;;19.44;82.42;96465.27;127572;1093;23675;-92
2021/07/29 05:01:58;;;;;;;15.98;14.20;;;;;;;19.45;82.09;96463.36;127582;1093;22773;-91
2021/07/29 05:04:29;;;;;;;15.75;14.05;;;;;;;19.44;82.04;96472.55;127839;1093;24706;-91
2021/07/29 05:07:01;;;;;;;16.90;13.43;;;;;;;19.43;81.97;96469.08;127879;1093;23898;-90
2021/07/29 05:09:32;;;;;;;15.05;12.65;;;;;;;19.42;81.87;96470.17;127876;1093;28022;-91
2021/07/29 05:12:04;;;;;;;34.95;28.63;;;;;;;19.43;81.74;96471.77;127842;1093;25325;-91
2021/07/29 05:14:36;;;;;;;20.90;17.55;;;;;;;19.39;81.78;96475.45;127873;1093;25638;-91
2021/07/29 05:17:07;;;;;;;17.13;13.93;;;;;;;19.39;81.77;96486.98;127876;1093;22770;-91
2021/07/29 05:19:38;;;;;;;15.80;13.45;;;;;;;19.46;81.61;96487.22;127803;1093;25479;-92
2021/07/29 05:22:09;;;;;;;15.45;13.38;;;;;;;19.50;81.61;96493.48;127921;1093;22816;-92
2021/07/29 05:24:41;;;;;;;17.25;12.90;;;;;;;19.56;81.45;96494.86;127817;1093;27047;-90
2021/07/29 05:27:12;;;;;;;14.13;11.93;;;;;;;19.68;81.73;96487.88;127815;1093;24981;-91
2021/07/29 05:29:43;;;;;;;13.78;11.25;;;;;;;19.81;81.02;96497.48;127792;1093;25545;-92
2021/07/29 05:32:14;;;;;;;14.33;12.13;;;;;;;19.83;80.60;96497.92;127862;1093;23806;-92
2021/07/29 05:34:46;;;;;;;14.33;12.38;;;;;;;19.86;80.47;96505.34;127569;1093;25989;-93
2021/07/29 05:37:17;;;;;;;13.03;10.88;;;;;;;19.96;80.47;96504.84;127695;1093;22797;-92
2021/07/29 05:39:48;;;;;;;13.58;12.00;;;;;;;19.99;80.30;96509.56;127851;1093;22813;-92
2021/07/29 05:42:23;;;;;;;13.18;11.53;;;;;;;20.08;79.90;96499.42;127836;1093;26145;-91
2021/07/29 05:44:55;;;;;;;12.75;11.43;;;;;;;20.24;80.27;96502.16;127855;1093;25384;-91
2021/07/29 05:47:26;;;;;;;12.85;11.50;;;;;;;20.40;79.73;96496.81;127827;1093;23896;-92
2021/07/29 05:49:57;;;;;;;13.28;11.88;;;;;;;20.45;79.42;96499.31;127682;1093;28955;-92
2021/07/29 05:52:30;;;;;;;11.78;10.20;;;;;;;20.49;78.82;96505.56;127802;1093;27420;-93
2021/07/29 05:55:01;;;;;;;14.28;10.25;;;;;;;20.50;78.43;96507.13;127834;1093;23199;-92
2021/07/29 05:57:33;;;;;;;12.85;10.40;;;;;;;20.53;78.22;96508.34;127803;1093;36837;-92
2021/07/29 06:00:06;;;;;;;13.25;9.15;;;;;;;20.65;77.83;96506.38;127818;1093;23177;-92
2021/07/29 06:02:37;;;;;;;12.98;9.25;;;;;;;20.94;78.23;96504.40;127707;1093;22864;-92
2021/07/29 06:05:10;;;;;;;10.50;9.07;;;;;;;21.27;76.16;96499.48;127917;1093;23176;-91
2021/07/29 06:07:41;;;;;;;11.48;8.50;;;;;;;21.64;75.25;96501.83;127838;1093;22990;-90
2021/07/29 06:10:13;;;;;;;9.73;7.98;;;;;;;22.20;74.32;96499.56;127857;1093;23039;-92
2021/07/29 06:12:44;;;;;;;8.80;6.90;;;;;;;23.54;74.31;96491.47;127810;1093;23516;-92
2021/07/29 06:15:15;;;;;;;8.50;6.88;;;;;;;24.51;68.12;96490.79;127797;1093;22813;-92
2021/07/29 06:17:50;;;;;;;9.93;6.98;;;;;;;24.88;67.46;96496.95;127732;1093;23450;-91
2021/07/29 06:20:22;;;;;;;8.78;6.30;;;;;;;24.43;66.34;96494.56;127784;1093;22937;-94
2021/07/29 06:22:53;;;;;;;7.08;5.90;;;;;;;23.91;65.58;96505.13;127471;1093;23273;-91
2021/07/29 06:25:25;;;;;;;8.55;5.93;;;;;;;23.56;66.63;96494.58;127665;1093;24107;-92
2021/07/29 06:27:56;;;;;;;8.58;6.18;;;;;;;23.46;65.61;96497.91;127583;1093;26807;-90
2021/07/29 06:30:30;;;;;;;7.58;6.60;;;;;;;22.93;65.66;96497.05;127803;1092;23756;-91
2021/07/29 06:33:01;;;;;;;8.10;6.10;;;;;;;22.39;66.26;96501.49;127839;1093;22783;-92
2021/07/29 06:35:33;;;;;;;6.55;5.73;;;;;;;22.03;67.07;96507.29;127805;1093;23269;-92
2021/07/29 06:38:04;;;;;;;7.80;5.80;;;;;;;21.76;67.83;96509.81;127746;1093;25274;-93
2021/07/29 06:40:35;;;;;;;7.48;5.53;;;;;;;21.69;68.78;96515.07;127881;1093;27126;-93
2021/07/29 06:43:07;;;;;;;7.53;5.63;;;;;;;21.68;69.42;96524.30;127821;1093;29581;-94
2021/07/29 06:45:38;;;;;;;8.55;6.23;;;;;;;21.72;69.72;96525.16;127865;1093;23267;-95
2021/07/29 06:48:10;;;;;;;9.03;6.65;;;;;;;22.04;70.67;96516.95;127886;1093;22786;-90
2021/07/29 06:50:41;;;;;;;7.40;5.68;;;;;;;22.76;69.64;96522.61;127438;1093;23460;-91
2021/07/29 06:53:12;;;;;;;9.33;6.18;;;;;;;23.37;67.44;96521.75;127701;1093;24695;-90
2021/07/29 06:55:44;;;;;;;7.20;5.95;;;;;;;23.09;66.29;96524.78;127569;1092;25382;-91
2021/07/29 06:58:15;;;;;;;7.40;5.98;;;;;;;23.23;66.51;96526.94;127825;1092;22784;-94
2021/07/29 07:00:46;;;;;;;11.20;7.15;;;;;;;23.25;65.71;96522.72;127797;1093;24108;-95
2021/07/29 07:03:18;;;;;;;7.90;6.05;;;;;;;24.41;68.50;96521.26;127603;1093;24806;-96
2021/07/29 07:05:49;;;;;;;6.80;5.50;;;;;;;27.11;65.18;96516.78;127799;1093;23418;-93
2021/07/29 07:08:20;;;;;;;8.35;5.63;;;;;;;28.22;61.86;96525.59;127766;1093;25504;-93
2021/07/29 07:10:51;;;;;;;10.15;9.15;;;;;;;30.17;60.27;96517.19;127600;1093;22793;-92
2021/07/29 07:13:22;;;;;;;9.13;7.45;;;;;;;31.10;54.71;96522.97;127814;1093;22816;-92
2021/07/29 07:15:54;;;;;;;6.25;5.48;;;;;;;30.70;53.53;96513.80;127794;1093;22819;-92
2021/07/29 07:18:25;;;;;;;11.53;7.80;;;;;;;29.04;52.47;96527.94;127534;1093;23892;-91
2021/07/29 07:21:06;;;;;;;10.15;6.53;;;;;;;27.71;53.58;96519.48;127670;1093;22813;-95
2021/07/29 07:23:35;;;;;;;;;;;;;;;26.75;54.95;96527.59;127719;1093;25871;-95
2021/07/29 07:26:14;;;;;;;8.13;5.70;;;;;;;26.06;55.29;96524.22;127718;1093;22879;-91
2021/07/29 07:28:45;;;;;;;6.25;4.83;;;;;;;25.23;55.33;96527.52;127533;1093;26309;-91
2021/07/29 07:31:17;;;;;;;6.48;4.93;;;;;;;24.54;56.62;96527.98;127856;1093;23325;-91
2021/07/29 07:33:49;;;;;;;5.80;4.85;;;;;;;27.12;59.42;96526.50;127649;1093;22813;-93
2021/07/29 07:36:21;;;;;;;5.35;4.25;;;;;;;28.74;52.08;96531.22;127522;1093;28639;-95
2021/07/29 07:38:53;;;;;;;6.53;4.83;;;;;;;27.45;52.01;96520.68;127837;1092;26274;-91
2021/07/29 07:41:24;;;;;;;5.35;4.33;;;;;;;26.52;53.69;96522.48;127829;1093;22810;-91
2021/07/29 07:43:55;;;;;;;5.83;4.53;;;;;;;29.18;53.11;96527.84;127834;1093;24966;-91
2021/07/29 07:46:27;;;;;;;8.08;4.33;;;;;;;31.82;50.27;96522.63;127488;1093;39978;-92
2021/07/29 07:48:58;;;;;;;5.55;4.65;;;;;;;30.72;48.37;96520.41;127414;1093;23524;-93
2021/07/29 07:51:29;;;;;;;4.93;4.43;;;;;;;29.62;48.28;96526.33;127760;1093;25805;-95
2021/07/29 07:54:00;;;;;;;6.05;4.80;;;;;;;28.31;48.97;96528.70;127752;1093;22669;-96
2021/07/29 07:56:32;;;;;;;6.85;5.55;;;;;;;26.91;50.21;96532.67;127797;1093;22797;-92
2021/07/29 07:59:03;;;;;;;6.53;5.30;;;;;;;25.65;51.96;96518.91;127808;1093;22787;-91
2021/07/29 08:01:34;;;;;;;5.75;4.90;;;;;;;24.78;54.07;96532.13;127750;1093;22817;-91
2021/07/29 08:04:06;;;;;;;6.90;5.13;;;;;;;24.19;56.15;96534.50;127838;1093;24627;-91
2021/07/29 08:06:37;;;;;;;8.60;5.73;;;;;;;23.96;57.24;96526.49;127503;1093;24664;-93
2021/07/29 08:09:08;;;;;;;5.98;4.85;;;;;;;23.77;57.37;96523.89;127720;1093;42159;-91
2021/07/29 08:11:39;;;;;;;5.28;4.33;;;;;;;23.55;57.77;96527.42;127579;1093;22838;-91
2021/07/29 08:14:10;;;;;;;6.23;4.87;;;;;;;23.55;58.98;96520.08;127854;1093;25557;-91
2021/07/29 08:16:42;;;;;;;5.95;4.23;;;;;;;23.71;58.66;96519.95;127856;1093;27882;-89
2021/07/29 08:19:13;;;;;;;7.15;5.30;;;;;;;23.76;58.74;96521.55;127788;1093;24325;-90
2021/07/29 08:21:44;;;;;;;6.20;4.78;;;;;;;23.63;58.96;96523.69;127822;1093;26580;-92
2021/07/29 08:24:16;;;;;;;8.88;5.30;;;;;;;23.58;58.75;96519.38;127834;1093;22837;-91
2021/07/29 08:26:47;;;;;;;8.20;6.03;;;;;;;23.77;60.45;96520.41;127560;1093;25513;-92
2021/07/29 08:29:18;;;;;;;5.83;4.55;;;;;;;23.83;59.11;96521.66;127600;1093;24385;-91
2021/07/29 08:31:49;;;;;;;5.05;4.08;;;;;;;24.55;57.91;96518.70;127460;1093;22790;-93
2021/07/29 08:34:21;;;;;;;4.08;3.13;;;;;;;24.88;56.39;96515.16;127823;1093;22816;-91
2021/07/29 08:36:52;;;;;;;3.85;3.10;;;;;;;24.84;53.91;96515.13;127591;1093;22817;-92
2021/07/29 08:39:24;;;;;;;4.88;3.43;;;;;;;24.85;54.79;96522.11;127702;1093;22894;-91
2021/07/29 08:41:55;;;;;;;4.85;3.23;;;;;;;24.64;53.78;96513.78;127788;1093;22789;-90
2021/07/29 08:44:26;;;;;;;5.03;3.45;;;;;;;24.64;54.79;96513.00;127655;1093;22848;-92
2021/07/29 08:46:58;;;;;;;3.98;3.50;;;;;;;24.75;54.67;96514.64;127690;1093;24139;-96
2021/07/29 08:49:29;;;;;;;3.58;3.00;;;;;;;25.01;55.27;96507.55;127766;1093;26046;-93
2021/07/29 08:52:00;;;;;;;4.30;3.75;;;;;;;25.03;54.52;96519.58;127856;1093;24398;-95
2021/07/29 08:54:32;;;;;;;4.63;3.53;;;;;;;24.88;53.98;96521.36;127650;1093;25738;-96
2021/07/29 08:57:03;;;;;;;4.93;4.03;;;;;;;24.70;54.69;96523.13;127676;1093;23316;-96
2021/07/29 08:59:38;;;;;;;5.78;4.20;;;;;;;24.54;54.44;96519.86;127846;1092;22795;-89
2021/07/29 09:02:24;;;;;;;5.93;3.93;;;;;;;24.52;55.54;96524.88;127551;1093;22790;-91
2021/07/29 09:05:17;;;;;;;5.53;3.70;;;;;;;24.68;55.20;96516.52;127597;1093;23554;-93
2021/07/29 09:08:04;;;;;;;5.55;4.15;;;;;;;25.06;55.16;96523.50;127640;1093;22907;-91
2021/07/29 09:10:39;;;;;;;7.03;4.38;;;;;;;25.69;54.69;96517.02;127469;1093;23617;-92
2021/07/29 09:13:15;;;;;;;4.20;3.63;;;;;;;25.97;54.47;96525.33;127869;1093;22813;-88
2021/07/29 09:15:48;;;;;;;5.00;3.48;;;;;;;26.34;53.88;96521.63;127756;1093;24805;-94
2021/07/29 09:18:20;;;;;;;4.50;3.28;;;;;;;26.56;53.46;96520.54;127846;1093;23413;-92
2021/07/29 09:21:10;;;;;;;5.88;3.70;;;;;;;26.54;52.42;96522.88;127761;1093;25238;-96
2021/07/29 09:23:42;;;;;;;4.35;3.70;;;;;;;26.42;52.49;96517.78;128885;1093;22607;-88
2021/07/29 09:26:13;;;;;;;5.15;3.70;;;;;;;26.03;52.55;96517.58;128990;1093;22911;-88
2021/07/29 09:28:44;;;;;;;5.13;3.63;;;;;;;25.91;52.46;96532.30;129001;1092;25908;-91
2021/07/29 09:31:21;;;;;;;6.58;4.20;;;;;;;25.88;52.38;96515.95;127618;1093;24616;-92
2021/07/29 09:34:01;;;;;;;5.20;4.38;;;;;;;25.93;53.45;96523.77;127801;1093;24666;-95
2021/07/29 09:36:34;;;;;;;5.05;4.15;;;;;;;26.13;53.14;96521.52;127768;1093;24629;-94
2021/07/29 09:39:23;;;;;;;5.78;4.30;;;;;;;26.08;53.03;96516.46;127629;1093;22793;-95
2021/07/29 09:42:19;;;;;;;8.05;4.15;;;;;;;25.96;52.73;96526.48;127769;1093;22787;-96
2021/07/29 09:44:52;;;;;;;5.23;4.00;;;;;;;25.97;53.68;96513.69;127705;1093;22799;-95
2021/07/29 09:47:24;;;;;;;5.45;4.03;;;;;;;26.16;53.90;96524.24;127606;1093;24232;-91
2021/07/29 09:49:55;;;;;;;4.55;3.63;;;;;;;26.12;52.62;96530.83;127876;1093;22783;-92
2021/07/29 09:52:28;;;;;;;4.65;3.58;;;;;;;25.96;53.39;96522.99;127881;1093;22813;-91
2021/07/29 09:55:03;;;;;;;5.43;3.93;;;;;;;25.86;53.07;96521.77;127898;1093;23141;-90
2021/07/29 09:57:35;;;;;;;5.08;3.95;;;;;;;25.84;52.13;96515.16;127889;1092;22791;-89
2021/07/29 10:00:08;;;;;;;6.23;4.48;;;;;;;25.57;52.87;96514.58;127613;1093;26764;-90
2021/07/29 10:02:40;;;;;;;4.98;3.80;;;;;;;25.54;53.81;96515.34;127946;1093;25835;-90
2021/07/29 10:05:14;;;;;;;5.80;4.50;;;;;;;25.56;53.31;96510.30;127894;1092;22765;-87
2021/07/29 10:07:49;;;;;;;5.03;3.88;;;;;;;25.54;53.43;96507.20;127911;1093;22786;-91
2021/07/29 10:10:22;;;;;;;6.28;4.30;;;;;;;25.80;54.04;96507.00;127864;1093;24944;-94
2021/07/29 10:12:55;;;;;;;4.65;3.50;;;;;;;26.10;53.26;96497.83;127840;1093;22783;-89
2021/07/29 10:15:44;;;;;;;5.08;3.70;;;;;;;26.18;52.32;96497.49;127902;1093;23043;-95
2021/07/29 10:18:16;;;;;;;5.23;3.60;;;;;;;26.40;52.16;96492.14;127880;1093;22879;-91
2021/07/29 10:20:47;;;;;;;4.08;3.40;;;;;;;26.15;51.63;96489.30;127884;1093;24032;-90
2021/07/29 10:23:35;;;;;;;6.20;3.65;;;;;;;25.91;51.16;96480.69;127883;1093;26232;-90
2021/07/29 10:26:08;;;;;;;5.58;3.70;;;;;;;25.95;52.20;96480.69;127914;1093;22783;-94
2021/07/29 10:28:40;;;;;;;4.18;3.20;;;;;;;25.83;50.69;96473.64;127914;1093;27789;-92
2021/07/29 10:31:15;;;;;;;6.05;3.90;;;;;;;25.53;50.48;96481.20;127833;1092;28205;-89
2021/07/29 10:33:49;;;;;;;4.18;3.25;;;;;;;25.50;51.71;96469.17;127907;1093;26717;-93
2021/07/29 10:36:45;;;;;;;4.95;3.50;;;;;;;25.59;52.06;96456.02;127868;1093;25404;-93
2021/07/29 10:39:17;;;;;;;4.63;3.50;;;;;;;25.81;51.70;96465.11;127866;1093;22809;-90
2021/07/29 10:41:53;;;;;;;4.20;3.43;;;;;;;25.80;51.30;96470.92;127861;1093;24076;-93
2021/07/29 10:44:49;;;;;;;4.85;3.78;;;;;;;25.58;50.70;96464.55;127860;1093;25014;-96
2021/07/29 10:47:44;;;;;;;4.57;3.50;;;;;;;25.48;51.18;96467.97;127834;1093;22902;-95
2021/07/29 10:50:17;;;;;;;4.40;3.70;;;;;;;25.59;51.00;96461.45;127887;1093;22792;-90
2021/07/29 10:52:55;;;;;;;4.20;3.60;;;;;;;25.53;51.58;96456.77;127740;1093;27498;-94
2021/07/29 10:55:29;;;;;;;3.85;3.38;;;;;;;25.61;51.78;96458.36;127783;1093;26280;-90
2021/07/29 10:58:06;;;;;;;3.60;3.20;;;;;;;25.57;50.95;96465.70;127834;1093;26665;-91
2021/07/29 11:00:39;;;;;;;4.33;3.45;;;;;;;25.51;51.45;96459.09;127923;1093;22786;-95
2021/07/29 11:03:24;;;;;;;4.33;3.05;;;;;;;25.64;51.03;96461.11;127683;1093;23128;-91
2021/07/29 11:06:05;;;;;;;4.10;3.18;;;;;;;25.56;49.75;96456.78;127740;1093;22979;-91
2021/07/29 11:08:37;;;;;;;3.43;2.90;;;;;;;25.40;50.40;96462.52;127959;1093;30427;-92
2021/07/29 11:11:09;;;;;;;4.20;3.28;;;;;;;25.50;51.22;96460.25;127917;1093;22786;-91
2021/07/29 11:13:46;;;;;;;4.05;3.25;;;;;;;25.63;52.18;96459.55;127902;1093;22783;-91
2021/07/29 11:16:18;;;;;;;4.35;3.35;;;;;;;25.79;52.38;96453.84;127871;1093;22780;-94
2021/07/29 11:19:02;;;;;;;4.63;3.15;;;;;;;25.84;49.77;96445.33;127874;1093;26273;-93
2021/07/29 11:21:35;;;;;;;4.55;3.55;;;;;;;25.81;50.06;96450.75;127868;1092;23665;-91
2021/07/29 11:24:06;;;;;;;3.93;3.05;;;;;;;25.75;48.99;96442.95;127876;1092;26245;-90
2021/07/29 11:26:45;;;;;;;5.50;2.98;;;;;;;25.79;49.50;96447.64;127939;1093;27304;-90
2021/07/29 11:29:17;;;;;;;4.53;2.70;;;;;;;25.96;49.49;96447.70;127881;1093;23560;-90
2021/07/29 11:31:52;;;;;;;5.18;3.15;;;;;;;26.07;49.89;96441.55;127849;1093;27286;-90
2021/07/29 11:34:31;;;;;;;4.63;2.80;;;;;;;26.09;50.41;96441.94;127800;1093;23643;-90
2021/07/29 11:37:03;;;;;;;4.90;2.90;;;;;;;26.11;48.99;96439.61;127852;1093;23897;-90
2021/07/29 11:39:41;;;;;;;3.80;2.78;;;;;;;26.10;49.70;96435.34;127786;1093;24877;-93
2021/07/29 11:42:12;;;;;;;4.98;3.23;;;;;;;26.04;49.35;96432.23;127889;1093;22974;-88
2021/07/29 11:44:45;;;;;;;3.88;3.15;;;;;;;25.91;47.97;96434.50;127890;1093;24427;-90